createdAt,value
2018-04-30T00:00:40.825Z,97025.19
2018-04-30T00:03:10.673Z,97013.89
2018-04-30T00:05:40.649Z,97026.79
2018-04-30T00:08:09.827Z,97016.16
2018-04-30T00:10:38.644Z,97015.35
2018-04-30T00:13:07.043Z,97017.55
2018-04-30T00:15:36.737Z,97021.08
2018-04-30T00:18:06.617Z,97019.01
2018-04-30T00:20:36.132Z,97019.53
2018-04-30T00:23:05.566Z,97024.47
2018-04-30T00:25:34.713Z,97021.60
2018-04-30T00:28:03.386Z,97028.44
2018-04-30T00:30:32.747Z,97036.78
2018-04-30T00:33:01.612Z,97044.88
2018-04-30T00:35:31.038Z,97053.52
2018-04-30T00:37:59.435Z,97056.73
2018-04-30T00:40:27.788Z,97048.77
2018-04-30T00:42:57.015Z,97048.77
2018-04-30T00:45:25.806Z,97052.48
2018-04-30T00:47:54.568Z,97044.42
2018-04-30T00:50:24.264Z,97050.73
2018-04-30T00:52:53.964Z,97053.66
2018-04-30T00:55:22.571Z,97048.28
2018-04-30T00:57:50.963Z,97045.90
2018-04-30T01:00:20.466Z,97040.02
2018-04-30T01:02:49.597Z,97047.76
2018-04-30T01:05:17.989Z,97052.91
2018-04-30T01:07:47.714Z,97053.94
2018-04-30T01:10:17.483Z,97063.00
2018-04-30T01:12:48.261Z,97063.72
2018-04-30T01:15:17.434Z,97080.13
2018-04-30T01:17:47.050Z,97090.05
2018-04-30T01:20:16.807Z,97095.17
2018-04-30T01:22:46.114Z,97085.13
2018-04-30T01:25:15.893Z,97092.44
2018-04-30T01:27:45.099Z,97089.87
2018-04-30T01:30:14.201Z,97082.19
2018-04-30T01:32:42.979Z,97096.72
2018-04-30T01:35:12.900Z,97088.42
2018-04-30T01:37:43.058Z,97101.47
2018-04-30T01:40:11.612Z,97123.20
2018-04-30T01:42:40.396Z,97133.89
2018-04-30T01:45:08.715Z,97140.77
2018-04-30T01:47:38.521Z,97157.85
2018-04-30T01:50:07.259Z,97169.28
2018-04-30T01:52:36.401Z,97186.76
2018-04-30T01:55:07.533Z,97198.31
2018-04-30T01:57:36.796Z,97197.86
2018-04-30T02:00:05.248Z,97198.78
2018-04-30T02:02:34.419Z,97210.41
2018-04-30T02:05:04.309Z,97212.22
2018-04-30T02:07:33.421Z,97204.01
2018-04-30T02:10:01.821Z,97206.30
2018-04-30T02:12:30.235Z,97207.38
2018-04-30T02:15:01.636Z,97214.47
2018-04-30T02:17:30.880Z,97220.01
2018-04-30T02:19:59.247Z,97232.88
2018-04-30T02:22:27.614Z,97238.37
2018-04-30T02:24:56.776Z,97240.78
2018-04-30T02:27:26.852Z,97251.90
2018-04-30T02:29:56.588Z,97250.19
2018-04-30T02:32:25.897Z,97249.21
2018-04-30T02:34:55.022Z,97253.33
2018-04-30T02:37:25.080Z,97258.81
2018-04-30T02:39:53.452Z,97258.10
2018-04-30T02:42:23.237Z,97261.53
2018-04-30T02:44:51.637Z,97263.70
2018-04-30T02:47:20.742Z,97256.83
2018-04-30T02:49:50.570Z,97265.29
2018-04-30T02:52:19.829Z,97281.22
2018-04-30T02:54:49.661Z,97290.27
2018-04-30T02:57:18.632Z,97303.94
2018-04-30T02:59:47.186Z,97311.41
2018-04-30T03:02:15.944Z,97309.70
2018-04-30T03:04:46.223Z,97309.77
2018-04-30T03:07:14.946Z,97309.36
2018-04-30T03:09:44.172Z,97313.92
2018-04-30T03:12:13.532Z,97319.02
2018-04-30T03:14:41.851Z,97312.36
2018-04-30T03:17:11.006Z,97326.45
2018-04-30T03:19:39.387Z,97326.55
2018-04-30T03:22:08.253Z,97331.02
2018-04-30T03:24:37.114Z,97335.47
2018-04-30T03:27:05.451Z,97332.90
2018-04-30T03:29:33.881Z,97339.48
2018-04-30T03:32:03.262Z,97339.93
2018-04-30T03:34:33.623Z,97340.62
2018-04-30T03:37:02.298Z,97340.09
2018-04-30T03:39:31.029Z,97354.59
2018-04-30T03:41:59.377Z,97340.40
2018-04-30T03:44:28.679Z,97356.44
2018-04-30T03:46:57.644Z,97356.77
2018-04-30T03:49:26.264Z,97360.64
2018-04-30T03:51:55.623Z,97371.30
2018-04-30T03:54:25.785Z,97373.80
2018-04-30T03:56:54.255Z,97370.82
2018-04-30T03:59:23.032Z,97372.89
2018-04-30T04:02:04.348Z,97381.25
2018-04-30T04:04:45.568Z,97377.09
2018-04-30T04:07:16.495Z,97378.19
2018-04-30T04:09:46.284Z,97384.73
2018-04-30T04:12:15.923Z,97373.92
2018-04-30T04:14:45.093Z,97372.27
2018-04-30T04:17:13.696Z,97382.44
2018-04-30T04:19:42.053Z,97387.01
2018-04-30T04:22:11.255Z,97387.51
2018-04-30T04:24:40.304Z,97395.74
2018-04-30T04:27:09.412Z,97392.13
2018-04-30T04:29:39.024Z,97400.88
2018-04-30T04:32:07.462Z,97399.41
2018-04-30T04:34:38.262Z,97411.06
2018-04-30T04:37:08.053Z,97417.23
2018-04-30T04:39:36.415Z,97416.90
2018-04-30T04:42:05.147Z,97410.39
2018-04-30T04:44:34.187Z,97396.41
2018-04-30T04:47:04.399Z,97406.84
2018-04-30T04:49:35.146Z,97401.00
2018-04-30T04:52:05.362Z,97415.73
2018-04-30T04:54:35.424Z,97415.68
2018-04-30T04:57:04.933Z,97423.27
2018-04-30T04:59:34.445Z,97429.34
2018-04-30T05:02:04.958Z,97435.18
2018-04-30T05:04:34.777Z,97450.89
2018-04-30T05:07:04.098Z,97460.78
2018-04-30T05:09:34.062Z,97454.43
2018-04-30T05:12:02.455Z,97468.46
2018-04-30T05:14:31.983Z,97467.24
2018-04-30T05:17:00.336Z,97483.25
2018-04-30T05:19:30.265Z,97483.25
2018-04-30T05:21:58.868Z,97506.36
2018-04-30T05:24:30.514Z,97501.87
2018-04-30T05:27:00.278Z,97497.67
2018-04-30T05:29:29.177Z,97477.13
2018-04-30T05:31:58.870Z,97485.64
2018-04-30T05:34:28.233Z,97496.62
2018-04-30T05:36:57.666Z,97498.25
2018-04-30T05:39:27.533Z,97524.32
2018-04-30T05:41:55.918Z,97513.97
2018-04-30T05:44:24.320Z,97524.61
2018-04-30T05:46:54.528Z,97530.95
2018-04-30T05:49:22.859Z,97538.95
2018-04-30T05:51:51.276Z,97548.38
2018-04-30T05:54:21.312Z,97548.36
2018-04-30T05:56:50.598Z,97592.36
2018-04-30T05:59:20.384Z,97558.89
2018-04-30T06:01:49.601Z,97568.20
2018-04-30T06:04:17.961Z,97581.14
2018-04-30T06:06:47.837Z,97577.97
2018-04-30T06:09:16.328Z,97571.61
2018-04-30T06:11:44.637Z,97570.92
2018-04-30T06:14:13.234Z,97576.52
2018-04-30T06:16:42.218Z,97580.05
2018-04-30T06:19:11.981Z,97565.66
2018-04-30T06:21:40.365Z,97564.48
2018-04-30T06:24:10.205Z,97557.41
2018-04-30T06:26:40.833Z,97543.26
2018-04-30T06:29:09.218Z,97550.26
2018-04-30T06:31:39.312Z,97560.17
2018-04-30T06:34:08.602Z,97575.58
2018-04-30T06:36:38.750Z,97586.14
2018-04-30T06:39:07.462Z,97613.00
2018-04-30T06:41:36.534Z,97606.30
2018-04-30T06:44:06.101Z,97609.95
2018-04-30T06:46:40.089Z,97605.67
2018-04-30T06:49:09.103Z,97620.78
2018-04-30T06:51:38.314Z,97629.65
2018-04-30T06:54:07.897Z,97628.22
2018-04-30T06:56:37.217Z,97635.81
2018-04-30T06:59:07.410Z,97627.05
2018-04-30T07:01:37.618Z,97636.23
2018-04-30T07:04:08.421Z,97632.56
2018-04-30T07:06:37.987Z,97618.02
2018-04-30T07:09:08.418Z,97618.12
2018-04-30T07:11:37.642Z,97623.41
2018-04-30T07:14:06.046Z,97628.72
2018-04-30T07:16:34.403Z,97626.16
2018-04-30T07:19:05.227Z,97625.84
2018-04-30T07:21:34.466Z,97635.59
2018-04-30T07:24:03.133Z,97648.42
2018-04-30T07:26:31.597Z,97645.33
2018-04-30T07:28:59.969Z,97657.55
2018-04-30T07:31:30.326Z,97657.71
2018-04-30T07:34:00.269Z,97654.45
2018-04-30T07:36:30.780Z,97663.41
2018-04-30T07:38:59.632Z,97669.02
2018-04-30T07:41:28.800Z,97677.77
2018-04-30T07:43:58.203Z,97696.84
2018-04-30T07:46:26.572Z,97707.27
2018-04-30T07:48:55.828Z,97698.82
2018-04-30T07:51:25.001Z,97685.70
2018-04-30T07:53:54.312Z,97669.56
2018-04-30T07:56:23.441Z,97671.69
2018-04-30T07:58:53.545Z,97673.45
2018-04-30T08:01:22.213Z,97684.74
2018-04-30T08:03:52.122Z,97685.81
2018-04-30T08:06:22.775Z,97689.02
2018-04-30T08:08:51.396Z,97684.37
2018-04-30T08:11:20.151Z,97677.70
2018-04-30T08:13:48.713Z,97663.66
2018-04-30T08:16:18.862Z,97658.19
2018-04-30T08:18:47.630Z,97634.47
2018-04-30T08:21:16.733Z,97641.50
2018-04-30T08:23:46.539Z,97645.16
2018-04-30T08:26:15.822Z,97645.44
2018-04-30T08:28:44.428Z,97655.88
2018-04-30T08:31:15.067Z,97657.39
2018-04-30T08:33:43.485Z,97664.19
2018-04-30T08:36:14.817Z,97684.78
2018-04-30T08:38:44.758Z,97711.33
2018-04-30T08:41:14.276Z,97719.42
2018-04-30T08:43:42.633Z,97730.37
2018-04-30T08:46:12.936Z,97730.81
2018-04-30T08:48:41.701Z,97744.29
2018-04-30T08:51:11.650Z,97752.30
2018-04-30T08:53:41.229Z,97762.94
2018-04-30T08:56:11.532Z,97766.55
2018-04-30T08:58:40.301Z,97780.80
2018-04-30T09:01:08.612Z,97762.73
2018-04-30T09:03:37.665Z,97748.70
2018-04-30T09:06:05.981Z,97742.89
2018-04-30T09:08:35.206Z,97734.00
2018-04-30T09:11:04.325Z,97743.42
2018-04-30T09:13:34.863Z,97732.72
2018-04-30T09:16:03.577Z,97734.84
2018-04-30T09:18:32.980Z,97726.69
2018-04-30T09:21:02.402Z,97724.72
2018-04-30T09:23:31.796Z,97749.58
2018-04-30T09:26:00.195Z,97717.20
2018-04-30T09:28:29.789Z,97713.70
2018-04-30T09:31:00.824Z,97756.89
2018-04-30T09:33:29.172Z,97729.21
2018-04-30T09:35:57.494Z,97724.38
2018-04-30T09:38:26.805Z,97733.34
2018-04-30T09:40:56.002Z,97729.04
2018-04-30T09:43:26.663Z,97719.77
2018-04-30T09:45:57.990Z,97762.45
2018-04-30T09:48:27.132Z,97743.66
2018-04-30T09:50:56.281Z,97723.30
2018-04-30T09:53:25.405Z,97754.72
2018-04-30T09:55:54.328Z,97732.59
2018-04-30T09:58:23.329Z,97729.36
2018-04-30T10:00:53.001Z,97733.76
2018-04-30T10:03:21.388Z,97723.00
2018-04-30T10:05:51.822Z,97736.84
2018-04-30T10:08:21.056Z,97727.70
2018-04-30T10:10:50.416Z,97723.52
2018-04-30T10:13:19.795Z,97735.39
2018-04-30T10:15:48.118Z,97721.08
2018-04-30T10:18:16.465Z,97731.25
2018-04-30T10:20:45.890Z,97725.47
2018-04-30T10:23:15.832Z,97744.63
2018-04-30T10:25:45.110Z,97737.18
2018-04-30T10:28:13.933Z,97736.53
2018-04-30T10:30:43.912Z,97735.30
2018-04-30T10:33:14.045Z,97746.73
2018-04-30T10:35:42.363Z,97759.89
2018-04-30T10:38:10.858Z,97749.96
2018-04-30T10:40:39.190Z,97748.47
2018-04-30T10:43:09.760Z,97742.12
2018-04-30T10:45:38.999Z,97757.26
2018-04-30T10:48:08.031Z,97750.95
2018-04-30T10:50:37.276Z,97755.86
2018-04-30T10:53:07.920Z,97752.28
2018-04-30T10:55:37.062Z,97750.59
2018-04-30T10:58:05.395Z,97752.41
2018-04-30T11:00:34.608Z,97738.55
2018-04-30T11:03:03.961Z,97769.95
2018-04-30T11:05:33.857Z,97779.95
2018-04-30T11:08:02.399Z,97754.55
2018-04-30T11:10:30.773Z,97762.95
2018-04-30T11:12:59.913Z,97761.56
2018-04-30T11:15:28.699Z,97759.59
2018-04-30T11:17:59.369Z,97760.42
2018-04-30T11:20:28.032Z,97760.53
2018-04-30T11:22:57.091Z,97760.80
2018-04-30T11:25:25.475Z,97766.03
2018-04-30T11:27:53.823Z,97770.47
2018-04-30T11:30:22.223Z,97772.17
2018-04-30T11:32:50.558Z,97756.99
2018-04-30T11:35:18.910Z,97760.70
2018-04-30T11:37:48.773Z,97756.65
2018-04-30T11:40:17.822Z,97748.62
2018-04-30T11:42:46.850Z,97751.79
2018-04-30T11:45:16.139Z,97746.62
2018-04-30T11:47:45.374Z,97740.45
2018-04-30T11:50:14.992Z,97751.72
2018-04-30T11:52:44.388Z,97762.09
2018-04-30T11:55:14.753Z,97753.14
2018-04-30T11:57:43.067Z,97752.05
2018-04-30T12:00:11.466Z,97766.30
2018-04-30T12:02:40.723Z,97754.89
2018-04-30T12:05:09.986Z,97765.55
2018-04-30T12:07:38.573Z,97775.09
2018-04-30T12:10:06.967Z,97757.54
2018-04-30T12:12:37.372Z,97767.00
2018-04-30T12:15:06.230Z,97767.81
2018-04-30T12:17:35.188Z,97766.80
2018-04-30T12:20:03.564Z,97764.21
2018-04-30T12:22:32.262Z,97772.06
2018-04-30T12:25:02.561Z,97768.67
2018-04-30T12:27:30.890Z,97767.86
2018-04-30T12:29:59.241Z,97774.34
2018-04-30T12:32:27.620Z,97782.27
2018-04-30T12:34:57.535Z,97769.59
2018-04-30T12:37:26.243Z,97770.66
2018-04-30T12:39:55.781Z,97772.62
2018-04-30T12:42:24.106Z,97787.50
2018-04-30T12:44:52.454Z,97767.13
2018-04-30T12:47:22.021Z,97799.03
2018-04-30T12:49:50.468Z,97761.03
2018-04-30T12:52:20.603Z,97777.17
2018-04-30T12:54:49.068Z,97763.39
2018-04-30T12:57:19.199Z,97767.43
2018-04-30T12:59:48.940Z,97773.35
2018-04-30T13:02:17.525Z,97775.16
2018-04-30T13:04:45.995Z,97789.70
2018-04-30T13:07:15.407Z,97779.27
2018-04-30T13:09:45.582Z,97766.89
2018-04-30T13:12:14.740Z,97767.66
2018-04-30T13:14:43.415Z,97773.00
2018-04-30T13:17:13.317Z,97775.56
2018-04-30T13:19:43.025Z,97780.94
2018-04-30T13:22:12.167Z,97773.11
2018-04-30T13:24:43.527Z,97812.23
2018-04-30T13:27:12.736Z,97802.12
2018-04-30T13:29:42.681Z,97810.67
2018-04-30T13:32:12.520Z,97786.23
2018-04-30T13:34:41.751Z,97807.56
2018-04-30T13:37:10.061Z,97820.70
2018-04-30T13:39:40.170Z,97804.22
2018-04-30T13:42:08.489Z,97796.84
2018-04-30T13:44:37.675Z,97797.38
2018-04-30T13:47:06.648Z,97792.78
2018-04-30T13:49:36.360Z,97813.59
2018-04-30T13:52:06.041Z,97800.45
2018-04-30T13:54:35.937Z,97785.13
2018-04-30T13:57:04.202Z,97790.59
2018-04-30T13:59:32.588Z,97815.12
2018-04-30T14:02:02.362Z,97798.43
2018-04-30T14:04:31.732Z,97796.26
2018-04-30T14:07:01.221Z,97819.27
2018-04-30T14:09:30.489Z,97792.78
2018-04-30T14:11:59.432Z,97794.54
2018-04-30T14:14:29.781Z,97798.77
2018-04-30T14:16:58.873Z,97793.13
2018-04-30T14:19:28.061Z,97795.84
2018-04-30T14:21:57.317Z,97809.66
2018-04-30T14:24:28.163Z,97831.29
2018-04-30T14:26:57.827Z,97851.50
2018-04-30T14:29:26.885Z,97809.62
2018-04-30T14:31:56.364Z,97823.84
2018-04-30T14:34:25.896Z,97831.63
2018-04-30T14:36:55.257Z,97815.74
2018-04-30T14:39:24.213Z,97820.27
2018-04-30T14:41:53.453Z,97816.16
2018-04-30T14:44:22.163Z,97819.66
2018-04-30T14:46:51.557Z,97816.14
2018-04-30T14:49:22.136Z,97827.35
2018-04-30T14:51:50.828Z,97864.44
2018-04-30T14:54:20.386Z,97835.47
2018-04-30T14:56:50.281Z,97837.31
2018-04-30T14:59:18.571Z,97823.27
2018-04-30T15:01:47.468Z,97832.05
2018-04-30T15:04:17.049Z,97831.61
2018-04-30T15:06:46.248Z,97846.46
2018-04-30T15:09:15.116Z,97831.48
2018-04-30T15:11:44.531Z,97820.82
2018-04-30T15:14:14.251Z,97841.73
2018-04-30T15:16:44.437Z,97831.44
2018-04-30T15:19:13.938Z,97832.27
2018-04-30T15:21:42.264Z,97822.36
2018-04-30T15:24:11.771Z,97831.52
2018-04-30T15:26:40.966Z,97832.75
2018-04-30T15:29:09.351Z,97830.71
2018-04-30T15:31:39.700Z,97839.47
2018-04-30T15:34:09.361Z,97834.46
2018-04-30T15:36:37.690Z,97830.11
2018-04-30T15:39:06.644Z,97822.75
2018-04-30T15:41:36.702Z,97826.03
2018-04-30T15:44:06.361Z,97812.72
2018-04-30T15:46:35.620Z,97811.13
2018-04-30T15:49:04.653Z,97827.86
2018-04-30T15:51:33.508Z,97824.20
2018-04-30T15:54:02.723Z,97817.84
2018-04-30T15:56:33.081Z,97824.02
2018-04-30T15:59:03.404Z,97819.27
2018-04-30T16:01:32.045Z,97809.21
2018-04-30T16:04:00.395Z,97814.06
2018-04-30T16:06:28.897Z,97815.73
2018-04-30T16:08:58.125Z,97816.33
2018-04-30T16:11:26.481Z,97820.31
2018-04-30T16:13:54.799Z,97822.86
2018-04-30T16:16:23.212Z,97855.61
2018-04-30T16:18:53.333Z,97824.47
2018-04-30T16:21:23.318Z,97852.17
2018-04-30T16:23:52.774Z,97830.08
2018-04-30T16:26:23.521Z,97836.48
2018-04-30T16:28:53.219Z,97837.42
2018-04-30T16:31:22.829Z,97857.08
2018-04-30T16:33:51.188Z,97838.98
2018-04-30T16:36:20.841Z,97832.86
2018-04-30T16:38:49.716Z,97829.67
2018-04-30T16:41:19.696Z,97830.27
2018-04-30T16:43:48.359Z,97831.36
2018-04-30T16:46:17.998Z,97827.48
2018-04-30T16:48:46.365Z,97812.95
2018-04-30T16:51:14.919Z,97811.31
2018-04-30T16:53:43.242Z,97820.39
2018-04-30T16:56:12.774Z,97818.25
2018-04-30T16:58:41.138Z,97820.09
2018-04-30T17:01:10.454Z,97808.57
2018-04-30T17:03:38.771Z,97823.34
2018-04-30T17:06:09.607Z,97817.52
2018-04-30T17:08:38.600Z,97817.80
2018-04-30T17:11:08.248Z,97822.30
2018-04-30T17:13:37.585Z,97822.25
2018-04-30T17:16:06.376Z,97819.20
2018-04-30T17:18:34.704Z,97820.52
2018-04-30T17:21:03.088Z,97815.50
2018-04-30T17:23:32.332Z,97828.70
2018-04-30T17:26:03.152Z,97821.57
2018-04-30T17:28:31.781Z,97818.27
2018-04-30T17:31:01.076Z,97813.44
2018-04-30T17:33:30.097Z,97816.16
2018-04-30T17:35:58.517Z,97810.52
2018-04-30T17:38:28.825Z,97810.80
2018-04-30T17:40:58.413Z,97806.59
2018-04-30T17:43:27.190Z,97812.16
2018-04-30T17:45:56.367Z,97814.29
2018-04-30T17:48:25.170Z,97821.83
2018-04-30T17:50:54.680Z,97823.52
2018-04-30T17:53:24.468Z,97834.30
2018-04-30T17:55:54.239Z,97824.66
2018-04-30T17:58:23.227Z,97834.12
2018-04-30T18:00:52.718Z,97837.89
2018-04-30T18:03:21.981Z,97845.12
2018-04-30T18:05:51.155Z,97845.16
2018-04-30T18:08:20.409Z,97841.77
2018-04-30T18:10:49.361Z,97849.33
2018-04-30T18:13:18.487Z,97843.19
2018-04-30T18:15:48.005Z,97855.91
2018-04-30T18:18:16.320Z,97861.97
2018-04-30T18:20:45.118Z,97860.95
2018-04-30T18:23:15.662Z,97853.38
2018-04-30T18:25:44.919Z,97861.86
2018-04-30T18:28:14.747Z,97864.26
2018-04-30T18:30:44.079Z,97867.59
2018-04-30T18:33:13.378Z,97868.99
2018-04-30T18:35:42.866Z,97873.69
2018-04-30T18:38:11.941Z,97869.44
2018-04-30T18:40:40.354Z,97878.83
2018-04-30T18:43:09.599Z,97884.19
2018-04-30T18:45:37.993Z,97888.79
2018-04-30T18:48:06.318Z,97895.52
2018-04-30T18:50:35.032Z,97891.19
2018-04-30T18:53:03.600Z,97900.12
2018-04-30T18:55:32.693Z,97906.13
2018-04-30T18:58:01.052Z,97905.21
2018-04-30T19:00:29.392Z,97910.22
2018-04-30T19:02:57.721Z,97911.52
2018-04-30T19:05:26.070Z,97913.41
2018-04-30T19:07:55.408Z,97912.57
2018-04-30T19:10:23.824Z,97906.13
2018-04-30T19:12:52.184Z,97923.36
2018-04-30T19:15:20.884Z,97922.09
2018-04-30T19:17:50.733Z,97914.83
2018-04-30T19:20:19.143Z,97928.40
2018-04-30T19:22:47.470Z,97940.56
2018-04-30T19:25:16.155Z,97937.34
2018-04-30T19:27:46.829Z,97935.25
2018-04-30T19:30:16.095Z,97932.25
2018-04-30T19:32:46.017Z,97940.36
2018-04-30T19:35:14.367Z,97942.75
2018-04-30T19:37:42.785Z,97937.98
2018-04-30T19:40:11.391Z,97941.26
2018-04-30T19:42:40.378Z,97931.62
2018-04-30T19:45:09.269Z,97933.98
2018-04-30T19:47:38.225Z,97926.67
2018-04-30T19:50:07.402Z,97931.47
2018-04-30T19:52:36.461Z,97933.30
2018-04-30T19:55:04.856Z,97931.25
2018-04-30T19:57:33.183Z,97929.74
2018-04-30T20:00:01.512Z,97952.27
2018-04-30T20:02:29.901Z,97951.66
2018-04-30T20:04:58.341Z,97944.80
2018-04-30T20:07:26.719Z,97950.25
2018-04-30T20:09:56.401Z,97936.86
2018-04-30T20:12:25.408Z,97946.75
2018-04-30T20:14:53.733Z,97945.99
2018-04-30T20:17:22.513Z,97940.89
2018-04-30T20:19:51.657Z,97972.02
2018-04-30T20:22:20.061Z,97956.64
2018-04-30T20:24:48.603Z,97949.09
2018-04-30T20:27:17.878Z,97957.17
2018-04-30T20:29:48.861Z,97957.88
2018-04-30T20:32:18.142Z,97975.78
2018-04-30T20:34:46.462Z,97954.11
2018-04-30T20:37:14.823Z,97961.58
2018-04-30T20:39:43.136Z,97958.16
2018-04-30T20:42:12.024Z,97954.39
2018-04-30T20:44:41.062Z,97959.31
2018-04-30T20:47:09.517Z,97954.02
2018-04-30T20:49:38.596Z,97962.77
2018-04-30T20:52:06.932Z,97969.43
2018-04-30T20:54:36.993Z,97972.40
2018-04-30T20:57:06.071Z,97977.41
2018-04-30T20:59:34.729Z,97989.72
2018-04-30T21:02:03.072Z,97990.00
2018-04-30T21:04:32.996Z,97988.78
2018-04-30T21:07:01.341Z,97983.59
2018-04-30T21:09:31.285Z,97999.94
2018-04-30T21:11:59.629Z,98003.64
2018-04-30T21:14:27.949Z,98000.59
2018-04-30T21:16:57.263Z,98000.85
2018-04-30T21:19:25.972Z,97996.44
2018-04-30T21:21:55.458Z,98029.96
2018-04-30T21:24:24.622Z,98007.59
2018-04-30T21:26:54.516Z,98007.95
2018-04-30T21:29:22.840Z,98007.23
2018-04-30T21:31:51.227Z,97994.29
2018-04-30T21:34:19.543Z,98003.55
2018-04-30T21:36:47.951Z,98020.05
2018-04-30T21:39:16.331Z,97998.48
2018-04-30T21:41:51.430Z,97994.45
2018-04-30T21:44:20.282Z,98034.78
2018-04-30T21:46:48.662Z,98017.54
2018-04-30T21:49:16.971Z,98010.56
2018-04-30T21:51:46.177Z,98010.58
2018-04-30T21:54:14.533Z,98004.66
2018-04-30T21:56:42.906Z,98011.55
2018-04-30T21:59:11.251Z,98016.84
2018-04-30T22:01:39.577Z,98011.34
2018-04-30T22:04:07.934Z,98012.47
2018-04-30T22:06:36.910Z,98019.30
2018-04-30T22:09:06.105Z,98023.95
2018-04-30T22:11:34.562Z,98014.69
2018-04-30T22:14:04.185Z,98022.02
2018-04-30T22:16:32.510Z,98023.88
2018-04-30T22:19:01.593Z,98027.78
2018-04-30T22:21:29.965Z,98034.68
2018-04-30T22:23:59.855Z,98039.06
2018-04-30T22:26:28.613Z,98037.34
2018-04-30T22:28:56.959Z,98046.73
2018-04-30T22:31:26.317Z,98059.30
2018-04-30T22:33:55.469Z,98046.45
2018-04-30T22:36:24.955Z,98046.80
2018-04-30T22:38:53.622Z,98056.00
2018-04-30T22:41:21.957Z,98052.00
2018-04-30T22:43:51.987Z,98046.42
2018-04-30T22:46:20.370Z,98043.50
2018-04-30T22:48:49.541Z,98060.03
2018-04-30T22:51:17.883Z,98066.10
2018-04-30T22:53:46.906Z,98064.47
2018-04-30T22:56:15.265Z,98064.75
2018-04-30T22:58:44.032Z,98074.89
2018-04-30T23:01:13.868Z,98059.89
2018-04-30T23:03:42.853Z,98069.66
2018-04-30T23:06:11.969Z,98066.78
2018-04-30T23:08:40.287Z,98072.91
2018-04-30T23:11:08.718Z,98073.43
2018-04-30T23:13:37.904Z,98087.64
2018-04-30T23:16:06.254Z,98082.32
2018-04-30T23:18:34.591Z,98112.73
2018-04-30T23:21:03.442Z,98093.55
2018-04-30T23:23:31.759Z,98099.81
2018-04-30T23:26:01.907Z,98096.89
2018-04-30T23:28:30.220Z,98094.02
2018-04-30T23:30:59.502Z,98105.88
2018-04-30T23:33:28.074Z,98110.69
2018-04-30T23:35:57.272Z,98137.22
2018-04-30T23:38:25.594Z,98094.03
2018-04-30T23:40:54.268Z,98103.91
2018-04-30T23:43:23.119Z,98111.16
2018-04-30T23:45:51.425Z,98129.23
2018-04-30T23:48:20.493Z,98131.31
2018-04-30T23:50:48.846Z,98126.45
2018-04-30T23:53:17.633Z,98113.03
2018-04-30T23:55:45.950Z,98120.94
2018-04-30T23:58:16.033Z,98128.08
